createdAt,value
2023-03-23T15:58:55.606Z,100464.84
2023-03-23T16:04:01.273Z,100482.84
2023-03-23T16:09:05.253Z,100461.19
2023-03-23T16:14:09.421Z,100493.53
2023-03-23T16:19:13.985Z,100498.94
2023-03-23T16:24:16.732Z,100498.22
2023-03-23T16:29:40.165Z,100489.44
2023-03-23T16:34:43.632Z,100483.41
2023-03-23T16:39:46.324Z,100455.97
2023-03-23T16:44:50.955Z,100435.81
2023-03-23T16:49:54.051Z,100435.81
2023-03-23T16:54:56.870Z,100422.78
2023-03-23T17:00:00.940Z,100400.59
2023-03-23T17:05:03.932Z,100349.34
2023-03-23T17:10:07.888Z,100328.09
2023-03-23T17:15:13.209Z,100286.91
2023-03-23T17:20:16.855Z,100260.84
2023-03-23T17:25:19.798Z,100254.50
2023-03-23T17:30:23.910Z,100245.94
2023-03-23T17:35:26.684Z,100249.34
2023-03-23T17:40:29.448Z,100244.84
2023-03-23T17:45:33.587Z,100230.28
2023-03-23T17:50:36.674Z,100243.38
2023-03-23T17:55:40.923Z,100244.00
2023-03-23T18:00:45.229Z,100245.50
2023-03-23T18:05:48.014Z,100256.00
2023-03-23T18:10:50.715Z,100247.72
2023-03-23T18:15:55.243Z,100247.63
2023-03-23T18:20:59.065Z,100253.56
2023-03-23T18:26:01.935Z,100256.91
2023-03-23T18:31:08.190Z,100242.47
2023-03-23T18:36:11.268Z,100243.34
2023-03-23T18:41:14.893Z,100238.56
2023-03-23T18:46:19.294Z,100237.47
2023-03-23T18:51:22.232Z,100240.09
2023-03-23T18:56:25.514Z,100246.81
2023-03-23T19:01:29.828Z,100254.72
2023-03-23T19:06:33.782Z,100244.81
2023-03-23T19:11:43.879Z,100257.69
2023-03-23T19:16:58.190Z,100260.91
2023-03-23T19:22:01.147Z,100255.56
2023-03-23T19:27:03.867Z,100249.88
2023-03-23T19:32:09.337Z,100243.72
2023-03-23T19:37:12.077Z,100238.31
2023-03-23T19:42:18.058Z,100210.06
2023-03-23T19:47:22.609Z,100194.28
2023-03-23T19:52:25.719Z,100181.94
2023-03-23T19:57:29.466Z,100157.19
2023-03-23T20:02:33.966Z,100135.38
2023-03-23T20:07:40.788Z,100117.56
2023-03-23T20:12:44.517Z,100109.72
2023-03-23T20:17:48.570Z,100099.06
2023-03-23T20:22:53.453Z,100073.50
2023-03-23T20:27:58.161Z,100041.00
2023-03-23T20:33:02.319Z,100012.72
2023-03-23T20:38:05.096Z,99991.59
2023-03-23T20:43:10.782Z,99978.38
2023-03-23T20:48:16.773Z,99963.44
2023-03-23T20:53:20.380Z,99933.53
2023-03-23T20:58:23.213Z,99929.31
2023-03-23T21:03:28.673Z,99923.13
2023-03-23T21:08:32.327Z,99928.47
2023-03-23T21:13:35.193Z,99916.03
2023-03-23T21:18:39.531Z,99913.06
2023-03-23T21:23:46.528Z,99918.59
2023-03-23T21:28:50.690Z,99895.53
2023-03-23T21:33:54.833Z,99883.16
2023-03-23T21:38:58.044Z,99886.56
2023-03-23T21:44:00.930Z,99884.28
2023-03-23T21:49:05.899Z,99862.94
2023-03-23T21:54:09.074Z,99849.22
2023-03-23T21:59:11.989Z,99837.28
2023-03-23T22:04:17.041Z,99819.59
2023-03-23T22:09:19.950Z,99826.22
2023-03-23T22:14:23.146Z,99815.47
2023-03-23T22:19:27.490Z,99807.91
2023-03-23T22:24:30.181Z,99810.88
2023-03-23T22:29:32.909Z,99808.97
2023-03-23T22:34:37.014Z,99802.19
2023-03-23T22:39:39.723Z,99808.66
2023-03-23T22:44:42.505Z,99804.88
2023-03-23T22:49:46.766Z,99803.44
2023-03-23T22:54:49.681Z,99781.47
2023-03-23T22:59:52.480Z,99781.09
2023-03-23T23:04:57.723Z,99793.63
2023-03-23T23:10:00.629Z,99788.06
2023-03-23T23:15:03.763Z,99791.47
2023-03-23T23:20:12.802Z,99793.31
2023-03-23T23:25:15.453Z,99806.84
2023-03-23T23:30:18.299Z,99813.91
2023-03-23T23:35:22.774Z,99822.44
2023-03-23T23:40:25.578Z,99836.34
2023-03-23T23:45:28.905Z,99852.47
2023-03-23T23:50:33.194Z,99853.91
2023-03-23T23:55:35.960Z,99856.19
